sensor_id;sensor_type;location;lat;lon;timestamp;P1;durP1;ratioP1;P2;durP2;ratioP2
55007;SDS011;40902;45.116;21.296;2023-06-26T00:01:19;12.45;;;8.07;;
55007;SDS011;40902;45.116;21.296;2023-06-26T00:03:46;13.18;;;7.72;;
55007;SDS011;40902;45.116;21.296;2023-06-26T00:06:12;15.18;;;9.48;;
55007;SDS011;40902;45.116;21.296;2023-06-26T00:08:38;14.05;;;7.72;;
55007;SDS011;40902;45.116;21.296;2023-06-26T00:11:04;13.55;;;7.78;;
55007;SDS011;40902;45.116;21.296;2023-06-26T00:13:29;13.90;;;7.43;;
55007;SDS011;40902;45.116;21.296;2023-06-26T00:15:55;11.02;;;7.10;;
55007;SDS011;40902;45.116;21.296;2023-06-26T00:18:21;17.25;;;7.60;;
55007;SDS011;40902;45.116;21.296;2023-06-26T00:20:48;16.88;;;8.15;;
55007;SDS011;40902;45.116;21.296;2023-06-26T00:23:15;15.85;;;7.20;;
55007;SDS011;40902;45.116;21.296;2023-06-26T00:25:42;12.15;;;7.50;;
55007;SDS011;40902;45.116;21.296;2023-06-26T00:28:08;14.93;;;7.63;;
55007;SDS011;40902;45.116;21.296;2023-06-26T00:30:33;16.17;;;7.85;;
55007;SDS011;40902;45.116;21.296;2023-06-26T00:32:59;16.10;;;6.95;;
55007;SDS011;40902;45.116;21.296;2023-06-26T00:35:25;16.23;;;7.03;;
55007;SDS011;40902;45.116;21.296;2023-06-26T00:37:51;11.57;;;6.63;;
55007;SDS011;40902;45.116;21.296;2023-06-26T00:40:16;16.33;;;7.30;;
55007;SDS011;40902;45.116;21.296;2023-06-26T00:42:42;10.85;;;6.90;;
55007;SDS011;40902;45.116;21.296;2023-06-26T00:45:08;10.98;;;6.63;;
55007;SDS011;40902;45.116;21.296;2023-06-26T00:47:34;11.07;;;6.45;;
55007;SDS011;40902;45.116;21.296;2023-06-26T00:50:00;16.10;;;6.80;;
55007;SDS011;40902;45.116;21.296;2023-06-26T00:52:25;13.48;;;6.75;;
55007;SDS011;40902;45.116;21.296;2023-06-26T00:54:51;12.93;;;6.88;;
55007;SDS011;40902;45.116;21.296;2023-06-26T00:57:18;23.90;;;7.30;;
55007;SDS011;40902;45.116;21.296;2023-06-26T00:59:43;14.20;;;6.20;;
55007;SDS011;40902;45.116;21.296;2023-06-26T01:02:09;15.50;;;6.50;;
55007;SDS011;40902;45.116;21.296;2023-06-26T01:04:35;12.68;;;6.15;;
55007;SDS011;40902;45.116;21.296;2023-06-26T01:07:01;9.80;;;6.00;;
55007;SDS011;40902;45.116;21.296;2023-06-26T01:09:29;8.30;;;4.90;;
55007;SDS011;40902;45.116;21.296;2023-06-26T01:11:55;32.17;;;6.43;;
55007;SDS011;40902;45.116;21.296;2023-06-26T01:14:21;24.48;;;6.50;;
55007;SDS011;40902;45.116;21.296;2023-06-26T01:16:47;12.65;;;6.60;;
55007;SDS011;40902;45.116;21.296;2023-06-26T01:19:23;10.63;;;6.22;;
55007;SDS011;40902;45.116;21.296;2023-06-26T01:21:55;20.05;;;6.95;;
55007;SDS011;40902;45.116;21.296;2023-06-26T01:24:33;26.52;;;7.00;;
55007;SDS011;40902;45.116;21.296;2023-06-26T01:27:02;14.77;;;6.78;;
55007;SDS011;40902;45.116;21.296;2023-06-26T01:29:30;13.60;;;6.70;;
55007;SDS011;40902;45.116;21.296;2023-06-26T01:31:57;22.15;;;6.63;;
55007;SDS011;40902;45.116;21.296;2023-06-26T01:34:24;20.83;;;6.32;;
55007;SDS011;40902;45.116;21.296;2023-06-26T01:36:50;13.43;;;6.07;;
55007;SDS011;40902;45.116;21.296;2023-06-26T01:39:18;16.08;;;6.10;;
55007;SDS011;40902;45.116;21.296;2023-06-26T01:41:44;15.70;;;5.63;;
55007;SDS011;40902;45.116;21.296;2023-06-26T01:46:53;7.57;;;4.82;;
55007;SDS011;40902;45.116;21.296;2023-06-26T01:52:32;5.95;;;4.72;;
55007;SDS011;40902;45.116;21.296;2023-06-26T01:55:03;7.00;;;4.80;;
55007;SDS011;40902;45.116;21.296;2023-06-26T01:57:35;6.82;;;4.80;;
55007;SDS011;40902;45.116;21.296;2023-06-26T02:00:02;6.93;;;5.32;;
55007;SDS011;40902;45.116;21.296;2023-06-26T02:02:29;6.65;;;4.22;;
55007;SDS011;40902;45.116;21.296;2023-06-26T02:04:55;5.60;;;4.18;;
55007;SDS011;40902;45.116;21.296;2023-06-26T02:07:20;6.95;;;3.95;;
55007;SDS011;40902;45.116;21.296;2023-06-26T02:09:46;6.18;;;4.18;;
55007;SDS011;40902;45.116;21.296;2023-06-26T02:12:12;6.68;;;4.10;;
55007;SDS011;40902;45.116;21.296;2023-06-26T02:14:37;5.28;;;4.07;;
55007;SDS011;40902;45.116;21.296;2023-06-26T02:17:03;5.40;;;4.45;;
55007;SDS011;40902;45.116;21.296;2023-06-26T02:19:29;5.43;;;4.00;;
55007;SDS011;40902;45.116;21.296;2023-06-26T02:21:55;8.77;;;3.95;;
55007;SDS011;40902;45.116;21.296;2023-06-26T02:24:21;5.50;;;4.20;;
55007;SDS011;40902;45.116;21.296;2023-06-26T02:26:46;8.70;;;4.20;;
55007;SDS011;40902;45.116;21.296;2023-06-26T02:29:14;7.70;;;5.43;;
55007;SDS011;40902;45.116;21.296;2023-06-26T02:31:40;11.73;;;5.47;;
55007;SDS011;40902;45.116;21.296;2023-06-26T02:34:05;8.25;;;5.47;;
55007;SDS011;40902;45.116;21.296;2023-06-26T02:36:31;8.98;;;5.40;;
55007;SDS011;40902;45.116;21.296;2023-06-26T02:38:57;9.05;;;5.53;;
55007;SDS011;40902;45.116;21.296;2023-06-26T02:41:23;8.57;;;5.25;;
55007;SDS011;40902;45.116;21.296;2023-06-26T02:43:48;8.75;;;5.65;;
55007;SDS011;40902;45.116;21.296;2023-06-26T02:46:14;10.00;;;6.20;;
55007;SDS011;40902;45.116;21.296;2023-06-26T02:48:40;12.15;;;7.25;;
55007;SDS011;40902;45.116;21.296;2023-06-26T02:51:05;12.88;;;6.95;;
55007;SDS011;40902;45.116;21.296;2023-06-26T02:53:32;10.18;;;6.68;;
55007;SDS011;40902;45.116;21.296;2023-06-26T02:55:57;10.00;;;6.88;;
55007;SDS011;40902;45.116;21.296;2023-06-26T02:58:23;14.75;;;7.18;;
55007;SDS011;40902;45.116;21.296;2023-06-26T03:00:49;12.45;;;7.38;;
55007;SDS011;40902;45.116;21.296;2023-06-26T03:03:15;11.93;;;7.10;;
55007;SDS011;40902;45.116;21.296;2023-06-26T03:05:40;16.33;;;8.52;;
55007;SDS011;40902;45.116;21.296;2023-06-26T03:08:06;15.55;;;7.75;;
55007;SDS011;40902;45.116;21.296;2023-06-26T03:10:32;16.52;;;8.40;;
55007;SDS011;40902;45.116;21.296;2023-06-26T03:12:57;16.13;;;7.97;;
55007;SDS011;40902;45.116;21.296;2023-06-26T03:15:23;16.52;;;8.48;;
55007;SDS011;40902;45.116;21.296;2023-06-26T03:17:49;11.88;;;8.00;;
55007;SDS011;40902;45.116;21.296;2023-06-26T03:20:14;15.18;;;8.38;;
55007;SDS011;40902;45.116;21.296;2023-06-26T03:22:40;13.70;;;8.35;;
55007;SDS011;40902;45.116;21.296;2023-06-26T03:25:06;18.13;;;9.43;;
55007;SDS011;40902;45.116;21.296;2023-06-26T03:27:32;17.77;;;8.88;;
55007;SDS011;40902;45.116;21.296;2023-06-26T03:29:58;17.48;;;9.00;;
55007;SDS011;40902;45.116;21.296;2023-06-26T03:32:24;18.00;;;9.23;;
55007;SDS011;40902;45.116;21.296;2023-06-26T03:34:49;18.35;;;9.45;;
55007;SDS011;40902;45.116;21.296;2023-06-26T03:37:15;18.02;;;10.02;;
55007;SDS011;40902;45.116;21.296;2023-06-26T03:39:41;19.92;;;9.65;;
55007;SDS011;40902;45.116;21.296;2023-06-26T03:42:07;17.75;;;9.93;;
55007;SDS011;40902;45.116;21.296;2023-06-26T03:44:32;17.50;;;9.55;;
55007;SDS011;40902;45.116;21.296;2023-06-26T03:46:58;21.48;;;9.68;;
55007;SDS011;40902;45.116;21.296;2023-06-26T03:49:23;21.27;;;10.00;;
55007;SDS011;40902;45.116;21.296;2023-06-26T03:51:49;19.10;;;9.82;;
55007;SDS011;40902;45.116;21.296;2023-06-26T03:54:15;15.10;;;9.75;;
55007;SDS011;40902;45.116;21.296;2023-06-26T03:56:41;17.58;;;9.57;;
55007;SDS011;40902;45.116;21.296;2023-06-26T03:59:06;16.42;;;10.10;;
55007;SDS011;40902;45.116;21.296;2023-06-26T04:01:32;18.95;;;9.50;;
55007;SDS011;40902;45.116;21.296;2023-06-26T04:03:59;17.40;;;9.45;;
55007;SDS011;40902;45.116;21.296;2023-06-26T04:06:25;15.23;;;9.85;;
55007;SDS011;40902;45.116;21.296;2023-06-26T04:08:51;16.63;;;10.27;;
55007;SDS011;40902;45.116;21.296;2023-06-26T04:11:16;17.58;;;9.90;;
55007;SDS011;40902;45.116;21.296;2023-06-26T04:13:42;19.50;;;10.27;;
55007;SDS011;40902;45.116;21.296;2023-06-26T04:16:08;18.40;;;10.13;;
55007;SDS011;40902;45.116;21.296;2023-06-26T04:18:33;17.05;;;10.00;;
55007;SDS011;40902;45.116;21.296;2023-06-26T04:23:38;18.20;;;10.38;;
55007;SDS011;40902;45.116;21.296;2023-06-26T04:26:05;17.88;;;10.13;;
55007;SDS011;40902;45.116;21.296;2023-06-26T04:28:31;14.82;;;10.10;;
55007;SDS011;40902;45.116;21.296;2023-06-26T04:30:58;17.13;;;10.00;;
55007;SDS011;40902;45.116;21.296;2023-06-26T04:33:24;19.75;;;10.23;;
55007;SDS011;40902;45.116;21.296;2023-06-26T04:35:51;14.85;;;10.02;;
55007;SDS011;40902;45.116;21.296;2023-06-26T04:38:16;18.88;;;10.07;;
55007;SDS011;40902;45.116;21.296;2023-06-26T04:40:43;20.10;;;11.25;;
55007;SDS011;40902;45.116;21.296;2023-06-26T04:43:09;16.80;;;10.98;;
55007;SDS011;40902;45.116;21.296;2023-06-26T04:45:34;14.70;;;9.75;;
55007;SDS011;40902;45.116;21.296;2023-06-26T04:48:00;19.55;;;10.55;;
55007;SDS011;40902;45.116;21.296;2023-06-26T04:50:26;20.73;;;11.80;;
55007;SDS011;40902;45.116;21.296;2023-06-26T04:52:54;19.42;;;11.10;;
55007;SDS011;40902;45.116;21.296;2023-06-26T04:55:20;19.15;;;10.25;;
55007;SDS011;40902;45.116;21.296;2023-06-26T04:57:49;18.63;;;10.80;;
55007;SDS011;40902;45.116;21.296;2023-06-26T05:00:15;19.02;;;11.00;;
55007;SDS011;40902;45.116;21.296;2023-06-26T05:02:41;17.90;;;11.07;;
55007;SDS011;40902;45.116;21.296;2023-06-26T05:05:06;20.77;;;11.32;;
55007;SDS011;40902;45.116;21.296;2023-06-26T05:07:32;15.73;;;10.52;;
55007;SDS011;40902;45.116;21.296;2023-06-26T05:09:58;16.50;;;10.40;;
55007;SDS011;40902;45.116;21.296;2023-06-26T05:12:24;16.35;;;10.70;;
55007;SDS011;40902;45.116;21.296;2023-06-26T05:14:49;19.60;;;11.98;;
55007;SDS011;40902;45.116;21.296;2023-06-26T05:17:15;16.58;;;10.60;;
55007;SDS011;40902;45.116;21.296;2023-06-26T05:19:41;20.27;;;10.77;;
55007;SDS011;40902;45.116;21.296;2023-06-26T05:22:07;25.23;;;11.63;;
55007;SDS011;40902;45.116;21.296;2023-06-26T05:24:34;19.02;;;12.00;;
55007;SDS011;40902;45.116;21.296;2023-06-26T05:27:01;19.08;;;10.77;;
55007;SDS011;40902;45.116;21.296;2023-06-26T05:29:27;20.88;;;11.38;;
55007;SDS011;40902;45.116;21.296;2023-06-26T05:31:55;22.90;;;11.45;;
55007;SDS011;40902;45.116;21.296;2023-06-26T05:34:22;17.92;;;11.45;;
55007;SDS011;40902;45.116;21.296;2023-06-26T05:36:51;17.33;;;11.52;;
55007;SDS011;40902;45.116;21.296;2023-06-26T05:39:19;16.48;;;11.82;;
55007;SDS011;40902;45.116;21.296;2023-06-26T05:41:45;18.33;;;11.40;;
55007;SDS011;40902;45.116;21.296;2023-06-26T05:44:11;14.13;;;11.20;;
55007;SDS011;40902;45.116;21.296;2023-06-26T05:46:36;17.85;;;11.20;;
55007;SDS011;40902;45.116;21.296;2023-06-26T05:49:03;17.83;;;11.52;;
55007;SDS011;40902;45.116;21.296;2023-06-26T05:51:28;16.10;;;11.48;;
55007;SDS011;40902;45.116;21.296;2023-06-26T05:53:54;18.77;;;11.55;;
55007;SDS011;40902;45.116;21.296;2023-06-26T05:56:20;20.92;;;12.45;;
55007;SDS011;40902;45.116;21.296;2023-06-26T05:58:47;16.50;;;10.77;;
55007;SDS011;40902;45.116;21.296;2023-06-26T06:01:13;18.80;;;11.32;;
55007;SDS011;40902;45.116;21.296;2023-06-26T06:03:39;20.85;;;11.63;;
55007;SDS011;40902;45.116;21.296;2023-06-26T06:06:05;17.05;;;11.60;;
55007;SDS011;40902;45.116;21.296;2023-06-26T06:08:30;14.02;;;11.02;;
55007;SDS011;40902;45.116;21.296;2023-06-26T06:10:56;18.25;;;11.32;;
55007;SDS011;40902;45.116;21.296;2023-06-26T06:13:22;17.10;;;12.18;;
55007;SDS011;40902;45.116;21.296;2023-06-26T06:15:49;15.95;;;11.07;;
55007;SDS011;40902;45.116;21.296;2023-06-26T06:18:14;18.88;;;12.13;;
55007;SDS011;40902;45.116;21.296;2023-06-26T06:20:40;17.83;;;12.15;;
55007;SDS011;40902;45.116;21.296;2023-06-26T06:23:06;15.60;;;12.38;;
55007;SDS011;40902;45.116;21.296;2023-06-26T06:25:32;16.38;;;12.07;;
55007;SDS011;40902;45.116;21.296;2023-06-26T06:27:58;18.30;;;11.63;;
55007;SDS011;40902;45.116;21.296;2023-06-26T06:30:23;20.30;;;12.35;;
55007;SDS011;40902;45.116;21.296;2023-06-26T06:32:49;16.70;;;12.35;;
55007;SDS011;40902;45.116;21.296;2023-06-26T06:35:18;19.45;;;12.18;;
55007;SDS011;40902;45.116;21.296;2023-06-26T06:37:43;15.30;;;11.13;;
55007;SDS011;40902;45.116;21.296;2023-06-26T06:40:09;15.52;;;11.38;;
55007;SDS011;40902;45.116;21.296;2023-06-26T06:42:36;20.60;;;11.98;;
55007;SDS011;40902;45.116;21.296;2023-06-26T06:45:02;15.18;;;11.32;;
55007;SDS011;40902;45.116;21.296;2023-06-26T06:47:28;15.73;;;11.02;;
55007;SDS011;40902;45.116;21.296;2023-06-26T06:49:54;15.38;;;11.00;;
55007;SDS011;40902;45.116;21.296;2023-06-26T06:52:19;15.63;;;11.02;;
55007;SDS011;40902;45.116;21.296;2023-06-26T06:54:56;13.73;;;10.52;;
55007;SDS011;40902;45.116;21.296;2023-06-26T06:57:24;17.15;;;10.75;;
55007;SDS011;40902;45.116;21.296;2023-06-26T06:59:50;13.25;;;10.70;;
55007;SDS011;40902;45.116;21.296;2023-06-26T07:02:16;17.20;;;11.60;;
55007;SDS011;40902;45.116;21.296;2023-06-26T07:04:42;13.50;;;10.95;;
55007;SDS011;40902;45.116;21.296;2023-06-26T07:07:08;15.88;;;10.80;;
55007;SDS011;40902;45.116;21.296;2023-06-26T07:09:34;17.67;;;10.57;;
55007;SDS011;40902;45.116;21.296;2023-06-26T07:12:01;14.98;;;10.02;;
55007;SDS011;40902;45.116;21.296;2023-06-26T07:14:27;13.20;;;10.18;;
55007;SDS011;40902;45.116;21.296;2023-06-26T07:16:53;14.52;;;9.63;;
55007;SDS011;40902;45.116;21.296;2023-06-26T07:19:19;15.85;;;10.88;;
55007;SDS011;40902;45.116;21.296;2023-06-26T07:21:44;17.02;;;10.13;;
55007;SDS011;40902;45.116;21.296;2023-06-26T07:24:11;13.68;;;9.75;;
55007;SDS011;40902;45.116;21.296;2023-06-26T07:26:37;15.38;;;10.95;;
55007;SDS011;40902;45.116;21.296;2023-06-26T07:29:03;15.00;;;10.50;;
55007;SDS011;40902;45.116;21.296;2023-06-26T07:31:29;15.95;;;10.50;;
55007;SDS011;40902;45.116;21.296;2023-06-26T07:33:55;13.80;;;11.10;;
55007;SDS011;40902;45.116;21.296;2023-06-26T07:36:20;17.88;;;11.30;;
55007;SDS011;40902;45.116;21.296;2023-06-26T07:38:46;16.40;;;10.93;;
55007;SDS011;40902;45.116;21.296;2023-06-26T07:41:11;18.05;;;11.45;;
55007;SDS011;40902;45.116;21.296;2023-06-26T07:43:37;13.30;;;10.90;;
55007;SDS011;40902;45.116;21.296;2023-06-26T07:46:03;19.27;;;11.57;;
55007;SDS011;40902;45.116;21.296;2023-06-26T07:48:28;12.20;;;10.70;;
55007;SDS011;40902;45.116;21.296;2023-06-26T07:50:54;14.60;;;10.90;;
55007;SDS011;40902;45.116;21.296;2023-06-26T07:53:20;22.60;;;11.35;;
55007;SDS011;40902;45.116;21.296;2023-06-26T07:55:45;13.60;;;10.50;;
55007;SDS011;40902;45.116;21.296;2023-06-26T07:58:11;13.70;;;9.52;;
55007;SDS011;40902;45.116;21.296;2023-06-26T08:00:37;17.15;;;10.43;;
55007;SDS011;40902;45.116;21.296;2023-06-26T08:03:03;15.63;;;10.43;;
55007;SDS011;40902;45.116;21.296;2023-06-26T08:05:29;15.25;;;10.18;;
55007;SDS011;40902;45.116;21.296;2023-06-26T08:07:54;13.88;;;9.50;;
55007;SDS011;40902;45.116;21.296;2023-06-26T08:10:20;14.25;;;9.32;;
55007;SDS011;40902;45.116;21.296;2023-06-26T08:12:46;16.05;;;9.75;;
55007;SDS011;40902;45.116;21.296;2023-06-26T08:15:13;14.15;;;9.60;;
55007;SDS011;40902;45.116;21.296;2023-06-26T08:17:40;14.48;;;10.15;;
55007;SDS011;40902;45.116;21.296;2023-06-26T08:20:06;15.30;;;9.70;;
55007;SDS011;40902;45.116;21.296;2023-06-26T08:22:33;15.00;;;9.60;;
55007;SDS011;40902;45.116;21.296;2023-06-26T08:24:59;13.95;;;9.65;;
55007;SDS011;40902;45.116;21.296;2023-06-26T08:27:25;12.90;;;9.63;;
55007;SDS011;40902;45.116;21.296;2023-06-26T08:29:54;18.58;;;9.57;;
55007;SDS011;40902;45.116;21.296;2023-06-26T08:32:20;15.45;;;10.18;;
55007;SDS011;40902;45.116;21.296;2023-06-26T08:34:46;14.60;;;9.07;;
55007;SDS011;40902;45.116;21.296;2023-06-26T08:37:12;15.02;;;9.38;;
55007;SDS011;40902;45.116;21.296;2023-06-26T08:39:38;12.43;;;8.98;;
55007;SDS011;40902;45.116;21.296;2023-06-26T08:42:04;13.30;;;8.75;;
55007;SDS011;40902;45.116;21.296;2023-06-26T08:44:30;15.93;;;8.73;;
55007;SDS011;40902;45.116;21.296;2023-06-26T08:46:58;12.88;;;8.48;;
55007;SDS011;40902;45.116;21.296;2023-06-26T08:49:25;10.20;;;7.70;;
55007;SDS011;40902;45.116;21.296;2023-06-26T08:51:59;12.18;;;7.80;;
55007;SDS011;40902;45.116;21.296;2023-06-26T08:54:36;13.00;;;7.82;;
55007;SDS011;40902;45.116;21.296;2023-06-26T08:57:06;10.98;;;7.88;;
55007;SDS011;40902;45.116;21.296;2023-06-26T08:59:32;12.40;;;7.38;;
55007;SDS011;40902;45.116;21.296;2023-06-26T09:01:59;14.88;;;8.07;;
55007;SDS011;40902;45.116;21.296;2023-06-26T09:04:25;13.85;;;8.13;;
55007;SDS011;40902;45.116;21.296;2023-06-26T09:06:51;10.23;;;7.28;;
55007;SDS011;40902;45.116;21.296;2023-06-26T09:09:17;19.00;;;7.38;;
55007;SDS011;40902;45.116;21.296;2023-06-26T09:11:43;9.32;;;6.35;;
55007;SDS011;40902;45.116;21.296;2023-06-26T09:14:09;10.23;;;7.80;;
55007;SDS011;40902;45.116;21.296;2023-06-26T09:16:39;15.10;;;7.78;;
55007;SDS011;40902;45.116;21.296;2023-06-26T09:19:10;9.13;;;6.22;;
55007;SDS011;40902;45.116;21.296;2023-06-26T09:21:37;9.82;;;5.63;;
55007;SDS011;40902;45.116;21.296;2023-06-26T09:24:03;9.60;;;6.13;;
55007;SDS011;40902;45.116;21.296;2023-06-26T09:26:29;9.43;;;6.22;;
55007;SDS011;40902;45.116;21.296;2023-06-26T09:28:56;11.40;;;6.53;;
55007;SDS011;40902;45.116;21.296;2023-06-26T09:31:23;9.38;;;6.22;;
55007;SDS011;40902;45.116;21.296;2023-06-26T09:33:49;10.38;;;5.97;;
55007;SDS011;40902;45.116;21.296;2023-06-26T09:36:21;10.25;;;6.72;;
55007;SDS011;40902;45.116;21.296;2023-06-26T09:38:50;9.55;;;6.38;;
55007;SDS011;40902;45.116;21.296;2023-06-26T09:41:17;9.38;;;6.38;;
55007;SDS011;40902;45.116;21.296;2023-06-26T09:43:49;9.07;;;6.18;;
55007;SDS011;40902;45.116;21.296;2023-06-26T09:48:44;8.73;;;5.90;;
55007;SDS011;40902;45.116;21.296;2023-06-26T09:51:13;8.90;;;6.07;;
55007;SDS011;40902;45.116;21.296;2023-06-26T09:53:39;10.98;;;6.15;;
55007;SDS011;40902;45.116;21.296;2023-06-26T09:56:08;8.45;;;5.85;;
55007;SDS011;40902;45.116;21.296;2023-06-26T09:58:41;10.82;;;6.15;;
55007;SDS011;40902;45.116;21.296;2023-06-26T10:01:08;9.60;;;6.50;;
55007;SDS011;40902;45.116;21.296;2023-06-26T10:03:34;8.63;;;6.28;;
55007;SDS011;40902;45.116;21.296;2023-06-26T10:06:03;12.70;;;6.25;;
55007;SDS011;40902;45.116;21.296;2023-06-26T10:08:30;9.15;;;6.57;;
55007;SDS011;40902;45.116;21.296;2023-06-26T10:10:56;7.63;;;5.70;;
55007;SDS011;40902;45.116;21.296;2023-06-26T10:13:25;8.70;;;6.13;;
55007;SDS011;40902;45.116;21.296;2023-06-26T10:15:53;9.90;;;5.93;;
55007;SDS011;40902;45.116;21.296;2023-06-26T10:18:21;9.75;;;6.20;;
55007;SDS011;40902;45.116;21.296;2023-06-26T10:20:51;6.47;;;5.45;;
55007;SDS011;40902;45.116;21.296;2023-06-26T10:23:19;8.15;;;5.72;;
55007;SDS011;40902;45.116;21.296;2023-06-26T10:25:46;8.93;;;5.95;;
55007;SDS011;40902;45.116;21.296;2023-06-26T10:28:14;8.43;;;6.05;;
55007;SDS011;40902;45.116;21.296;2023-06-26T10:30:41;8.13;;;5.97;;
55007;SDS011;40902;45.116;21.296;2023-06-26T10:33:08;7.30;;;5.55;;
55007;SDS011;40902;45.116;21.296;2023-06-26T10:35:40;7.78;;;5.93;;
55007;SDS011;40902;45.116;21.296;2023-06-26T10:38:07;8.98;;;6.18;;
55007;SDS011;40902;45.116;21.296;2023-06-26T10:40:40;8.95;;;6.25;;
55007;SDS011;40902;45.116;21.296;2023-06-26T10:43:07;7.72;;;6.07;;
55007;SDS011;40902;45.116;21.296;2023-06-26T10:45:34;10.70;;;6.10;;
55007;SDS011;40902;45.116;21.296;2023-06-26T10:48:00;11.05;;;5.63;;
55007;SDS011;40902;45.116;21.296;2023-06-26T10:50:27;8.38;;;5.85;;
55007;SDS011;40902;45.116;21.296;2023-06-26T10:55:34;8.25;;;5.55;;
55007;SDS011;40902;45.116;21.296;2023-06-26T10:58:01;6.30;;;5.00;;
55007;SDS011;40902;45.116;21.296;2023-06-26T11:00:27;12.23;;;6.40;;
55007;SDS011;40902;45.116;21.296;2023-06-26T11:02:54;7.70;;;5.90;;
55007;SDS011;40902;45.116;21.296;2023-06-26T11:05:27;9.05;;;5.82;;
55007;SDS011;40902;45.116;21.296;2023-06-26T11:08:05;9.55;;;5.95;;
55007;SDS011;40902;45.116;21.296;2023-06-26T11:10:50;10.27;;;5.70;;
55007;SDS011;40902;45.116;21.296;2023-06-26T11:13:17;9.10;;;6.10;;
55007;SDS011;40902;45.116;21.296;2023-06-26T11:15:47;10.45;;;5.90;;
55007;SDS011;40902;45.116;21.296;2023-06-26T11:18:14;10.88;;;6.15;;
55007;SDS011;40902;45.116;21.296;2023-06-26T11:20:40;8.18;;;6.15;;
55007;SDS011;40902;45.116;21.296;2023-06-26T11:23:09;7.38;;;5.82;;
55007;SDS011;40902;45.116;21.296;2023-06-26T11:25:36;9.43;;;5.70;;
55007;SDS011;40902;45.116;21.296;2023-06-26T11:28:05;10.05;;;5.97;;
55007;SDS011;40902;45.116;21.296;2023-06-26T11:30:31;7.55;;;5.57;;
55007;SDS011;40902;45.116;21.296;2023-06-26T11:33:04;10.25;;;5.93;;
55007;SDS011;40902;45.116;21.296;2023-06-26T11:37:57;8.82;;;6.00;;
55007;SDS011;40902;45.116;21.296;2023-06-26T11:40:29;8.95;;;5.68;;
55007;SDS011;40902;45.116;21.296;2023-06-26T11:42:58;10.30;;;5.93;;
55007;SDS011;40902;45.116;21.296;2023-06-26T11:45:28;9.82;;;5.32;;
55007;SDS011;40902;45.116;21.296;2023-06-26T11:47:57;8.68;;;5.80;;
55007;SDS011;40902;45.116;21.296;2023-06-26T11:50:23;8.98;;;6.00;;
55007;SDS011;40902;45.116;21.296;2023-06-26T11:52:58;9.48;;;6.20;;
55007;SDS011;40902;45.116;21.296;2023-06-26T11:55:26;7.80;;;6.00;;
55007;SDS011;40902;45.116;21.296;2023-06-26T11:57:53;7.10;;;5.25;;
55007;SDS011;40902;45.116;21.296;2023-06-26T12:00:19;8.70;;;5.60;;
55007;SDS011;40902;45.116;21.296;2023-06-26T12:02:46;7.50;;;6.03;;
55007;SDS011;40902;45.116;21.296;2023-06-26T12:05:13;7.63;;;5.38;;
55007;SDS011;40902;45.116;21.296;2023-06-26T12:07:40;6.60;;;5.50;;
55007;SDS011;40902;45.116;21.296;2023-06-26T12:10:07;9.63;;;5.65;;
55007;SDS011;40902;45.116;21.296;2023-06-26T12:12:34;7.80;;;5.43;;
55007;SDS011;40902;45.116;21.296;2023-06-26T12:15:00;8.57;;;5.68;;
55007;SDS011;40902;45.116;21.296;2023-06-26T12:17:27;9.07;;;5.38;;
55007;SDS011;40902;45.116;21.296;2023-06-26T12:19:53;8.77;;;5.50;;
55007;SDS011;40902;45.116;21.296;2023-06-26T12:22:19;7.20;;;5.68;;
55007;SDS011;40902;45.116;21.296;2023-06-26T12:24:46;7.70;;;5.63;;
55007;SDS011;40902;45.116;21.296;2023-06-26T12:27:14;7.18;;;5.55;;
55007;SDS011;40902;45.116;21.296;2023-06-26T12:29:41;7.60;;;5.47;;
55007;SDS011;40902;45.116;21.296;2023-06-26T12:32:10;6.03;;;5.13;;
55007;SDS011;40902;45.116;21.296;2023-06-26T12:34:37;7.97;;;5.20;;
55007;SDS011;40902;45.116;21.296;2023-06-26T12:37:10;6.28;;;5.25;;
55007;SDS011;40902;45.116;21.296;2023-06-26T12:39:45;7.10;;;5.53;;
55007;SDS011;40902;45.116;21.296;2023-06-26T12:42:13;8.27;;;5.65;;
55007;SDS011;40902;45.116;21.296;2023-06-26T12:44:40;7.47;;;5.63;;
55007;SDS011;40902;45.116;21.296;2023-06-26T12:47:06;8.80;;;5.57;;
55007;SDS011;40902;45.116;21.296;2023-06-26T12:49:38;7.78;;;5.30;;
55007;SDS011;40902;45.116;21.296;2023-06-26T12:52:06;6.55;;;5.38;;
55007;SDS011;40902;45.116;21.296;2023-06-26T12:54:36;6.78;;;5.10;;
55007;SDS011;40902;45.116;21.296;2023-06-26T12:57:02;8.80;;;5.88;;
55007;SDS011;40902;45.116;21.296;2023-06-26T12:59:29;7.80;;;6.07;;
55007;SDS011;40902;45.116;21.296;2023-06-26T13:01:56;9.50;;;5.38;;
55007;SDS011;40902;45.116;21.296;2023-06-26T13:04:22;8.10;;;5.25;;
55007;SDS011;40902;45.116;21.296;2023-06-26T13:06:48;7.45;;;5.35;;
55007;SDS011;40902;45.116;21.296;2023-06-26T13:09:15;6.88;;;5.50;;
55007;SDS011;40902;45.116;21.296;2023-06-26T13:11:41;7.78;;;5.40;;
55007;SDS011;40902;45.116;21.296;2023-06-26T13:14:07;7.50;;;5.32;;
55007;SDS011;40902;45.116;21.296;2023-06-26T13:16:33;7.10;;;5.47;;
55007;SDS011;40902;45.116;21.296;2023-06-26T13:19:00;7.30;;;4.80;;
55007;SDS011;40902;45.116;21.296;2023-06-26T13:21:27;7.57;;;5.22;;
55007;SDS011;40902;45.116;21.296;2023-06-26T13:23:53;7.47;;;5.13;;
55007;SDS011;40902;45.116;21.296;2023-06-26T13:26:20;6.10;;;5.07;;
55007;SDS011;40902;45.116;21.296;2023-06-26T13:28:47;6.95;;;4.75;;
55007;SDS011;40902;45.116;21.296;2023-06-26T13:31:13;7.72;;;5.65;;
55007;SDS011;40902;45.116;21.296;2023-06-26T13:33:39;9.48;;;5.70;;
55007;SDS011;40902;45.116;21.296;2023-06-26T13:36:05;8.07;;;5.03;;
55007;SDS011;40902;45.116;21.296;2023-06-26T13:38:35;8.05;;;4.93;;
55007;SDS011;40902;45.116;21.296;2023-06-26T13:41:03;6.65;;;5.03;;
55007;SDS011;40902;45.116;21.296;2023-06-26T13:43:29;8.43;;;5.72;;
55007;SDS011;40902;45.116;21.296;2023-06-26T13:45:56;6.43;;;5.45;;
55007;SDS011;40902;45.116;21.296;2023-06-26T13:48:22;6.13;;;4.80;;
55007;SDS011;40902;45.116;21.296;2023-06-26T13:50:49;6.93;;;5.22;;
55007;SDS011;40902;45.116;21.296;2023-06-26T13:53:15;7.85;;;5.78;;
55007;SDS011;40902;45.116;21.296;2023-06-26T13:55:42;6.70;;;5.28;;
55007;SDS011;40902;45.116;21.296;2023-06-26T13:58:08;6.90;;;4.80;;
55007;SDS011;40902;45.116;21.296;2023-06-26T14:00:35;6.25;;;5.40;;
55007;SDS011;40902;45.116;21.296;2023-06-26T14:03:02;5.80;;;4.72;;
55007;SDS011;40902;45.116;21.296;2023-06-26T14:05:31;7.25;;;5.50;;
55007;SDS011;40902;45.116;21.296;2023-06-26T14:07:57;7.60;;;5.60;;
55007;SDS011;40902;45.116;21.296;2023-06-26T14:10:23;6.22;;;5.15;;
55007;SDS011;40902;45.116;21.296;2023-06-26T14:12:50;6.35;;;5.10;;
55007;SDS011;40902;45.116;21.296;2023-06-26T14:15:16;7.47;;;5.55;;
55007;SDS011;40902;45.116;21.296;2023-06-26T14:17:42;7.55;;;5.40;;
55007;SDS011;40902;45.116;21.296;2023-06-26T14:20:09;7.65;;;5.32;;
55007;SDS011;40902;45.116;21.296;2023-06-26T14:22:37;7.32;;;5.15;;
55007;SDS011;40902;45.116;21.296;2023-06-26T14:25:04;8.65;;;5.65;;
55007;SDS011;40902;45.116;21.296;2023-06-26T14:27:30;8.35;;;5.63;;
55007;SDS011;40902;45.116;21.296;2023-06-26T14:29:57;8.48;;;5.20;;
55007;SDS011;40902;45.116;21.296;2023-06-26T14:32:23;6.10;;;4.97;;
55007;SDS011;40902;45.116;21.296;2023-06-26T14:34:49;7.53;;;5.03;;
55007;SDS011;40902;45.116;21.296;2023-06-26T14:37:15;7.30;;;5.47;;